createdAt,value
2019-01-03T00:00:41.392Z,98849.75
2019-01-03T00:01:27.868Z,98855.29
2019-01-03T00:01:59.475Z,98850.60
2019-01-03T00:02:40.622Z,98857.42
2019-01-03T00:03:27.898Z,98854.47
2019-01-03T00:04:01.904Z,98856.56
2019-01-03T00:04:36.120Z,98854.86
2019-01-03T00:05:26.424Z,98858.27
2019-01-03T00:05:59.753Z,98858.31
2019-01-03T00:06:43.003Z,98862.97
2019-01-03T00:07:14.584Z,98855.75
2019-01-03T00:07:48.588Z,98857.88
2019-01-03T00:08:30.094Z,98857.48
2019-01-03T00:09:16.571Z,98860.47
2019-01-03T00:10:03.410Z,98864.31
2019-01-03T00:10:43.669Z,98864.31
2019-01-03T00:11:17.189Z,98864.73
2019-01-03T00:11:52.679Z,98861.36
2019-01-03T00:12:34.180Z,98865.63
2019-01-03T00:13:20.654Z,98860.55
2019-01-03T00:13:58.145Z,98858.45
2019-01-03T00:14:35.392Z,98857.17
2019-01-03T00:15:12.664Z,98863.59
2019-01-03T00:15:59.098Z,98861.08
2019-01-03T00:16:46.406Z,98863.66
2019-01-03T00:17:17.998Z,98871.34
2019-01-03T00:17:53.146Z,98869.62
2019-01-03T00:18:43.445Z,98873.47
2019-01-03T00:19:18.707Z,98868.81
2019-01-03T00:19:54.732Z,98863.73
2019-01-03T00:20:27.094Z,98870.12
2019-01-03T00:21:13.567Z,98866.31
2019-01-03T00:21:48.882Z,98868.05
2019-01-03T00:22:37.099Z,98874.02
2019-01-03T00:23:12.654Z,98875.78
2019-01-03T00:23:50.781Z,98875.78
2019-01-03T00:24:28.303Z,98874.11
2019-01-03T00:25:00.735Z,98870.70
2019-01-03T00:25:35.040Z,98872.02
2019-01-03T00:26:08.470Z,98875.84
2019-01-03T00:26:40.075Z,98872.47
2019-01-03T00:27:15.264Z,98875.45
2019-01-03T00:28:04.574Z,98876.33
2019-01-03T00:28:41.894Z,98869.97
2019-01-03T00:29:33.259Z,98882.78
2019-01-03T00:30:10.444Z,98880.67
2019-01-03T00:30:47.673Z,98879.00
2019-01-03T00:31:38.949Z,98881.98
2019-01-03T00:32:14.109Z,98888.83
2019-01-03T00:32:45.702Z,98886.72
2019-01-03T00:33:20.138Z,98882.92
2019-01-03T00:33:57.449Z,98887.17
2019-01-03T00:34:46.733Z,98887.20
2019-01-03T00:35:23.855Z,98888.48
2019-01-03T00:35:59.021Z,98884.24
2019-01-03T00:36:36.323Z,98894.04
2019-01-03T00:37:13.476Z,98884.27
2019-01-03T00:38:02.784Z,98884.70
2019-01-03T00:38:53.032Z,98890.26
2019-01-03T00:40:42.186Z,98892.84
2019-01-03T00:41:23.488Z,98899.68
2019-01-03T00:41:58.704Z,98901.38
2019-01-03T00:42:36.985Z,98902.69
2019-01-03T00:43:14.233Z,98895.02
2019-01-03T00:43:46.629Z,98897.59
2019-01-03T00:44:23.950Z,98893.30
2019-01-03T00:45:01.059Z,98899.72
2019-01-03T00:45:32.668Z,98900.56
2019-01-03T00:46:10.074Z,98903.13
2019-01-03T00:46:47.289Z,98906.95
2019-01-03T00:47:35.694Z,98900.14
2019-01-03T00:49:07.542Z,98898.86
2019-01-03T00:49:44.729Z,98904.40
2019-01-03T00:50:31.197Z,98909.94
2019-01-03T00:51:03.691Z,98903.52
2019-01-03T00:51:39.016Z,98906.93
2019-01-03T00:52:14.026Z,98905.23
2019-01-03T00:53:05.420Z,98909.09
2019-01-03T00:54:38.547Z,98905.67
2019-01-03T00:55:10.156Z,98911.23
2019-01-03T00:55:57.557Z,98909.53
2019-01-03T00:56:34.908Z,98907.83
2019-01-03T00:57:22.168Z,98904.41
2019-01-03T00:57:59.557Z,98913.78
2019-01-03T00:58:42.809Z,98917.98
2019-01-03T00:59:14.406Z,98912.03
2019-01-03T00:59:51.737Z,98918.00
2019-01-03T01:00:38.219Z,98917.56
2019-01-03T01:01:28.489Z,98920.13
2019-01-03T01:02:03.623Z,98915.44
2019-01-03T01:02:40.953Z,98910.33
2019-01-03T01:03:24.202Z,98915.01
2019-01-03T01:04:01.565Z,98910.75
2019-01-03T01:04:48.040Z,98914.16
2019-01-03T01:05:36.292Z,98910.78
2019-01-03T01:06:22.783Z,98921.84
2019-01-03T01:07:12.061Z,98923.16
2019-01-03T01:07:46.233Z,98924.82
2019-01-03T01:08:36.626Z,98929.11
2019-01-03T01:09:14.050Z,98927.83
2019-01-03T01:09:54.210Z,98926.13
2019-01-03T01:10:31.337Z,98926.94
2019-01-03T01:11:16.615Z,98929.95
2019-01-03T01:11:53.779Z,98934.18
2019-01-03T01:12:42.306Z,98937.62
2019-01-03T01:13:19.598Z,98933.36
2019-01-03T01:13:51.976Z,98928.25
2019-01-03T01:14:26.086Z,98934.20
2019-01-03T01:15:12.525Z,98936.76
2019-01-03T01:15:44.132Z,98941.44
2019-01-03T01:16:19.547Z,98941.90
2019-01-03T01:17:06.025Z,98935.93
2019-01-03T01:17:40.203Z,98945.72
2019-01-03T01:18:17.533Z,98947.88
2019-01-03T01:19:05.738Z,98944.05
2019-01-03T01:19:57.148Z,98950.00
2019-01-03T01:20:34.250Z,98960.64
2019-01-03T01:21:10.301Z,98945.73
2019-01-03T01:21:58.623Z,98955.14
2019-01-03T01:22:32.021Z,98961.09
2019-01-03T01:23:09.308Z,98951.30
2019-01-03T01:23:40.915Z,98956.84
2019-01-03T01:24:27.394Z,98950.45
2019-01-03T01:24:58.999Z,98955.13
2019-01-03T01:25:34.435Z,98950.02
2019-01-03T01:26:07.965Z,98958.96
2019-01-03T01:26:43.323Z,98959.39
2019-01-03T01:27:16.365Z,98958.95
2019-01-03T01:28:03.606Z,98958.96
2019-01-03T01:28:53.085Z,98958.53
2019-01-03T01:29:30.357Z,98950.89
2019-01-03T01:30:04.796Z,98959.39
2019-01-03T01:30:46.302Z,98957.25
2019-01-03T01:31:27.800Z,98958.11
2019-01-03T01:32:03.878Z,98955.55
2019-01-03T01:32:46.352Z,98957.27
2019-01-03T01:33:23.647Z,98960.67
2019-01-03T01:34:09.015Z,98963.20
2019-01-03T01:34:46.475Z,98962.75
2019-01-03T01:35:18.799Z,98969.55
2019-01-03T01:36:08.204Z,98969.12
2019-01-03T01:36:40.703Z,98967.41
2019-01-03T01:37:15.714Z,98966.53
2019-01-03T01:38:02.189Z,98963.56
2019-01-03T01:38:37.481Z,98967.77
2019-01-03T01:39:29.712Z,98965.19
2019-01-03T01:40:07.142Z,98968.12
2019-01-03T01:40:44.589Z,98974.92
2019-01-03T01:41:16.189Z,98959.98
2019-01-03T01:41:52.325Z,98974.45
2019-01-03T01:42:24.633Z,98978.26
2019-01-03T01:43:01.863Z,98974.00
2019-01-03T01:43:36.027Z,98977.81
2019-01-03T01:44:25.356Z,98979.06
2019-01-03T01:45:02.539Z,98975.20
2019-01-03T01:45:47.906Z,98973.47
2019-01-03T01:46:20.006Z,98970.03
2019-01-03T01:47:04.300Z,98987.48
2019-01-03T01:47:39.605Z,98986.21
2019-01-03T01:48:13.730Z,98985.78
2019-01-03T01:49:01.919Z,98979.34
2019-01-03T01:50:36.161Z,98979.46
2019-01-03T01:51:25.426Z,98979.97
2019-01-03T01:52:03.666Z,98982.16
2019-01-03T01:52:45.184Z,98977.52
2019-01-03T01:53:31.657Z,98984.34
2019-01-03T01:54:23.214Z,98951.67
2019-01-03T01:54:58.801Z,98987.25
2019-01-03T01:55:38.054Z,98979.14
2019-01-03T01:56:15.445Z,98979.96
2019-01-03T01:56:52.620Z,98982.92
2019-01-03T01:57:44.868Z,98982.92
2019-01-03T01:58:24.264Z,98976.10
2019-01-03T01:58:55.858Z,98982.92
2019-01-03T01:59:30.444Z,98974.83
2019-01-03T02:00:07.768Z,98985.48
2019-01-03T02:00:55.020Z,98979.08
2019-01-03T02:01:29.281Z,98979.52
2019-01-03T02:02:19.600Z,98980.39
2019-01-03T02:02:56.998Z,98981.67
2019-01-03T02:03:30.020Z,98978.26
2019-01-03T02:04:17.443Z,98971.47
2019-01-03T02:04:49.401Z,98979.98
2019-01-03T02:05:38.705Z,98975.33
2019-01-03T02:06:16.019Z,98981.71
2019-01-03T02:06:48.120Z,98978.33
2019-01-03T02:07:25.384Z,98976.20
2019-01-03T02:07:57.727Z,98970.66
2019-01-03T02:08:31.038Z,98968.98
2019-01-03T02:09:18.380Z,98963.02
2019-01-03T02:09:59.937Z,98967.33
2019-01-03T02:10:34.477Z,98960.53
2019-01-03T02:11:16.832Z,98965.22
2019-01-03T02:11:48.443Z,98959.67
2019-01-03T02:12:36.667Z,98959.70
2019-01-03T02:13:08.743Z,98954.16
2019-01-03T02:13:42.112Z,98955.44
2019-01-03T02:14:19.342Z,98957.59
2019-01-03T02:15:07.650Z,98961.84
2019-01-03T02:15:55.034Z,98960.17
2019-01-03T02:16:27.480Z,98961.01
2019-01-03T02:17:13.963Z,98957.60
2019-01-03T02:17:51.989Z,98957.63
2019-01-03T02:18:39.314Z,98953.39
2019-01-03T02:19:13.748Z,98960.22
2019-01-03T02:20:00.977Z,98950.00
2019-01-03T02:20:52.407Z,98949.14
2019-01-03T02:21:29.726Z,98951.73
2019-01-03T02:22:03.826Z,98947.89
2019-01-03T02:22:41.031Z,98955.59
2019-01-03T02:23:16.511Z,98948.34
2019-01-03T02:23:51.798Z,98956.42
2019-01-03T02:24:23.395Z,98951.31
2019-01-03T02:24:54.996Z,98949.63
2019-01-03T02:25:47.392Z,98953.05
2019-01-03T02:26:18.986Z,98948.36
2019-01-03T02:26:54.357Z,98950.06
2019-01-03T02:27:40.833Z,98951.78
2019-01-03T02:28:13.037Z,98942.84
2019-01-03T02:28:50.208Z,98947.13
2019-01-03T02:29:36.701Z,98929.30
2019-01-03T02:30:10.285Z,98951.35
2019-01-03T02:30:43.381Z,98952.65
2019-01-03T02:31:20.674Z,98953.08
2019-01-03T02:31:57.882Z,98953.52
2019-01-03T02:32:32.372Z,98934.02
2019-01-03T02:33:09.462Z,98956.11
2019-01-03T02:33:41.873Z,98959.50
2019-01-03T02:34:32.236Z,98954.39
2019-01-03T02:35:09.482Z,98955.26
2019-01-03T02:35:44.800Z,98959.12
2019-01-03T02:36:33.138Z,98958.69
2019-01-03T02:37:10.369Z,98956.13
2019-01-03T02:37:47.666Z,98958.71
2019-01-03T02:38:34.132Z,98955.30
2019-01-03T02:39:05.735Z,98957.00
2019-01-03T02:39:52.220Z,98957.42
2019-01-03T02:40:24.275Z,98832.77
2019-01-03T02:41:15.712Z,98954.89
2019-01-03T02:42:03.102Z,98953.61
2019-01-03T02:42:38.578Z,98955.34
2019-01-03T02:43:15.934Z,98954.91
2019-01-03T02:43:48.328Z,98953.23
2019-01-03T02:44:30.691Z,98952.80
2019-01-03T02:45:07.848Z,98954.93
2019-01-03T02:45:49.361Z,98954.91
2019-01-03T02:46:31.650Z,98957.91
2019-01-03T02:47:18.140Z,98955.78
2019-01-03T02:47:50.226Z,98954.08
2019-01-03T02:48:38.445Z,98953.65
2019-01-03T02:49:28.897Z,98954.06
2019-01-03T02:50:00.512Z,98950.69
2019-01-03T02:50:32.120Z,98935.45
2019-01-03T02:51:09.476Z,98954.94
2019-01-03T02:51:41.824Z,98959.19
2019-01-03T02:52:24.115Z,98956.22
2019-01-03T02:52:56.210Z,98956.63
2019-01-03T02:53:33.529Z,98958.33
2019-01-03T02:54:21.885Z,98958.73
2019-01-03T02:55:14.230Z,98956.18
2019-01-03T02:56:01.582Z,98959.59
2019-01-03T02:57:45.962Z,98962.15
2019-01-03T02:58:23.718Z,98955.77
2019-01-03T02:59:00.660Z,98963.85
2019-01-03T02:59:38.010Z,98955.34
2019-01-03T03:00:09.602Z,98961.72
2019-01-03T03:00:51.119Z,98965.13
2019-01-03T03:01:39.430Z,98962.58
2019-01-03T03:02:11.685Z,98957.87
2019-01-03T03:02:43.750Z,98957.03
2019-01-03T03:03:24.091Z,98952.33
2019-01-03T03:04:00.184Z,98960.41
2019-01-03T03:04:46.671Z,98965.49
2019-01-03T03:05:19.136Z,98959.56
2019-01-03T03:05:53.068Z,98955.73
2019-01-03T03:06:35.434Z,98960.41
2019-01-03T03:07:12.848Z,98954.47
2019-01-03T03:07:45.856Z,98955.31
2019-01-03T03:08:22.415Z,98950.23
2019-01-03T03:09:13.928Z,98957.03
2019-01-03T03:10:00.260Z,98950.67
2019-01-03T03:10:31.854Z,98952.39
2019-01-03T03:11:19.228Z,98956.22
2019-01-03T03:13:01.629Z,98956.23
2019-01-03T03:13:46.943Z,98956.66
2019-01-03T03:14:36.387Z,98954.13
2019-01-03T03:15:28.880Z,98954.55
2019-01-03T03:16:04.172Z,98955.40
2019-01-03T03:16:50.665Z,98958.38
2019-01-03T03:17:25.805Z,98955.82
2019-01-03T03:18:00.040Z,98960.08
2019-01-03T03:18:37.444Z,98964.36
2019-01-03T03:19:11.442Z,98957.98
2019-01-03T03:19:45.673Z,98955.00
2019-01-03T03:20:38.004Z,98962.66
2019-01-03T03:21:16.284Z,98961.38
2019-01-03T03:21:48.375Z,98952.41
2019-01-03T03:22:23.922Z,98958.38
2019-01-03T03:23:02.044Z,98945.22
2019-01-03T03:23:35.235Z,98955.38
2019-01-03T03:24:12.430Z,98958.33
2019-01-03T03:24:44.788Z,98960.45
2019-01-03T03:25:19.174Z,98951.92
2019-01-03T03:25:55.728Z,98959.53
2019-01-03T03:26:31.830Z,98959.50
2019-01-03T03:27:06.879Z,98959.91
2019-01-03T03:27:42.064Z,98953.51
2019-01-03T03:28:19.391Z,98957.74
2019-01-03T03:28:52.420Z,98955.20
2019-01-03T03:29:29.633Z,98959.83
2019-01-03T03:30:06.811Z,98958.96
2019-01-03T03:30:43.958Z,98955.55
2019-01-03T03:31:18.695Z,98961.90
2019-01-03T03:31:56.021Z,98962.73
2019-01-03T03:32:30.407Z,98952.10
2019-01-03T03:33:03.565Z,98955.48
2019-01-03T03:33:46.999Z,98952.06
2019-01-03T03:34:24.320Z,98952.43
2019-01-03T03:34:57.330Z,98960.08
2019-01-03T03:35:45.601Z,98955.40
2019-01-03T03:36:32.073Z,98954.50
2019-01-03T03:37:20.421Z,98951.95
2019-01-03T03:37:57.529Z,98935.00
2019-01-03T03:38:44.029Z,98958.28
2019-01-03T03:39:30.502Z,98954.42
2019-01-03T03:40:07.606Z,98954.00
2019-01-03T03:40:50.926Z,98948.89
2019-01-03T03:41:34.336Z,98917.55
2019-01-03T03:42:10.533Z,98945.88
2019-01-03T03:42:47.912Z,98943.30
2019-01-03T03:43:25.135Z,98945.44
2019-01-03T03:44:00.241Z,98951.80
2019-01-03T03:44:37.504Z,98947.11
2019-01-03T03:45:28.744Z,98946.27
2019-01-03T03:47:08.946Z,98947.51
2019-01-03T03:47:42.383Z,98930.97
2019-01-03T03:48:29.203Z,98947.09
2019-01-03T03:49:16.593Z,98954.33
2019-01-03T03:49:49.038Z,98946.26
2019-01-03T03:50:25.523Z,98944.13
2019-01-03T03:51:00.556Z,98945.86
2019-01-03T03:51:37.883Z,98945.43
2019-01-03T03:52:11.234Z,98939.52
2019-01-03T03:52:57.709Z,98941.63
2019-01-03T03:53:45.037Z,98937.81
2019-01-03T03:54:22.421Z,98939.97
2019-01-03T03:54:55.420Z,98938.69
2019-01-03T03:55:32.703Z,98937.44
2019-01-03T03:56:06.812Z,98932.35
2019-01-03T03:56:44.151Z,98937.03
2019-01-03T03:57:21.587Z,98934.05
2019-01-03T03:58:14.050Z,98936.21
2019-01-03T03:59:01.435Z,98938.79
2019-01-03T04:00:39.548Z,98936.70
2019-01-03T04:01:13.928Z,98933.32
2019-01-03T04:01:51.152Z,98938.42
2019-01-03T04:02:23.579Z,98935.47
2019-01-03T04:03:10.071Z,98934.22
2019-01-03T04:03:58.446Z,98930.38
2019-01-03T04:04:33.451Z,98930.80
2019-01-03T04:05:14.954Z,98924.44
2019-01-03T04:06:02.302Z,98933.37
2019-01-03T04:07:48.478Z,98927.86
2019-01-03T04:08:40.948Z,98936.41
2019-01-03T04:09:29.386Z,98924.44
2019-01-03T04:10:21.635Z,98929.61
2019-01-03T04:10:58.965Z,98928.02
2019-01-03T04:11:31.380Z,98928.47
2019-01-03T04:12:17.859Z,98922.97
2019-01-03T04:12:51.192Z,98930.25
2019-01-03T04:13:25.472Z,98882.80
2019-01-03T04:14:12.787Z,98920.56
2019-01-03T04:14:55.242Z,98922.28
2019-01-03T04:15:43.599Z,98919.28
2019-01-03T04:16:15.208Z,98923.54
2019-01-03T04:16:52.372Z,98924.82
2019-01-03T04:17:33.887Z,98922.27
2019-01-03T04:18:07.336Z,98920.99
2019-01-03T04:18:54.669Z,98921.82
2019-01-03T04:19:32.004Z,98925.64
2019-01-03T04:20:18.302Z,98922.66
2019-01-03T04:20:54.452Z,98922.64
2019-01-03T04:21:46.025Z,98920.06
2019-01-03T04:22:32.516Z,98917.07
2019-01-03T04:23:09.687Z,98920.05
2019-01-03T04:23:47.054Z,98918.75
2019-01-03T04:24:36.457Z,98921.30
2019-01-03T04:25:13.827Z,98915.77
2019-01-03T04:25:50.943Z,98914.07
2019-01-03T04:26:29.099Z,98910.70
2019-01-03T04:27:10.598Z,98917.06
2019-01-03T04:27:47.936Z,98907.30
2019-01-03T04:28:22.338Z,98914.98
2019-01-03T04:29:08.825Z,98904.38
2019-01-03T04:29:46.102Z,98914.58
2019-01-03T04:30:20.228Z,98912.45
2019-01-03T04:31:10.506Z,98912.91
2019-01-03T04:32:01.814Z,98912.90
2019-01-03T04:32:39.060Z,98908.66
2019-01-03T04:33:11.478Z,98911.22
2019-01-03T04:33:45.664Z,98909.12
2019-01-03T04:34:33.007Z,98907.83
2019-01-03T04:35:09.317Z,98911.67
2019-01-03T04:35:55.840Z,98910.81
2019-01-03T04:37:26.203Z,98912.98
2019-01-03T04:37:57.793Z,98909.99
2019-01-03T04:38:33.820Z,98903.60
2019-01-03T04:39:10.169Z,98907.88
2019-01-03T04:39:41.752Z,98903.63
2019-01-03T04:40:13.353Z,98899.39
2019-01-03T04:40:44.931Z,98903.64
2019-01-03T04:41:28.318Z,98902.80
2019-01-03T04:42:14.790Z,98905.36
2019-01-03T04:43:01.231Z,98901.98
2019-01-03T04:43:50.436Z,98901.10
2019-01-03T04:44:38.766Z,98902.39
2019-01-03T04:45:14.177Z,98904.55
2019-01-03T04:45:48.238Z,98901.11
2019-01-03T04:46:25.405Z,98899.84
2019-01-03T04:46:57.027Z,98898.98
2019-01-03T04:47:31.467Z,98903.27
2019-01-03T04:48:03.062Z,98893.91
2019-01-03T04:48:50.372Z,98898.17
2019-01-03T04:49:22.947Z,98896.02
2019-01-03T04:49:56.345Z,98899.83
2019-01-03T04:50:43.719Z,98891.30
2019-01-03T04:51:32.192Z,98893.42
2019-01-03T04:52:18.707Z,98895.96
2019-01-03T04:52:53.982Z,98896.80
2019-01-03T04:53:42.361Z,98902.30
2019-01-03T04:55:19.650Z,98889.90
2019-01-03T04:55:56.981Z,98892.40
2019-01-03T04:56:34.128Z,98889.35
2019-01-03T04:57:08.245Z,98891.05
2019-01-03T04:57:43.594Z,98900.36
2019-01-03T04:58:20.735Z,98882.44
2019-01-03T04:59:07.214Z,98896.87
2019-01-03T05:00:39.498Z,98893.52
2019-01-03T05:01:26.835Z,98894.36
2019-01-03T05:02:18.382Z,98892.70
2019-01-03T05:02:52.623Z,98888.49
2019-01-03T05:03:29.809Z,98891.03
2019-01-03T05:04:21.204Z,98885.09
2019-01-03T05:04:55.630Z,98880.47
2019-01-03T05:05:32.835Z,98891.07
2019-01-03T05:06:06.944Z,98882.98
2019-01-03T05:06:48.458Z,98885.06
2019-01-03T05:07:25.818Z,98888.42
2019-01-03T05:07:57.726Z,98887.95
2019-01-03T05:08:32.993Z,98888.78
2019-01-03T05:09:05.091Z,98882.83
2019-01-03T05:09:37.285Z,98878.12
2019-01-03T05:10:14.663Z,98879.83
2019-01-03T05:11:02.778Z,98881.09
2019-01-03T05:11:51.027Z,98881.09
2019-01-03T05:12:28.370Z,98880.25
2019-01-03T05:13:17.623Z,98874.74
2019-01-03T05:13:59.830Z,98878.56
2019-01-03T05:14:33.313Z,98874.73
2019-01-03T05:15:17.730Z,98883.70
2019-01-03T05:16:10.009Z,98886.70
2019-01-03T05:16:47.235Z,98880.34
2019-01-03T05:17:35.676Z,98879.91
2019-01-03T05:18:12.930Z,98882.89
2019-01-03T05:18:50.141Z,98875.68
2019-01-03T05:19:36.600Z,98882.49
2019-01-03T05:20:08.733Z,98877.78
2019-01-03T05:20:44.779Z,98866.36
2019-01-03T05:21:22.046Z,98867.55
2019-01-03T05:22:08.525Z,98870.12
2019-01-03T05:22:55.042Z,98875.66
2019-01-03T05:23:32.501Z,98872.28
2019-01-03T05:24:09.729Z,98865.47
2019-01-03T05:24:47.187Z,98875.25
2019-01-03T05:25:18.797Z,98871.88
2019-01-03T05:25:56.269Z,98871.87
2019-01-03T05:26:37.782Z,98876.12
2019-01-03T05:27:26.968Z,98872.71
2019-01-03T05:27:59.091Z,98871.89
2019-01-03T05:28:34.670Z,98869.77
2019-01-03T05:29:07.795Z,98874.02
2019-01-03T05:29:57.094Z,98865.92
2019-01-03T05:30:34.615Z,98874.03
2019-01-03T05:31:07.700Z,98874.48
2019-01-03T05:31:56.055Z,98876.61
2019-01-03T05:32:32.333Z,98880.05
2019-01-03T05:33:04.738Z,98867.72
2019-01-03T05:33:46.263Z,98874.53
2019-01-03T05:34:30.604Z,98875.80
2019-01-03T05:35:06.121Z,98870.69
2019-01-03T05:35:38.507Z,98871.12
2019-01-03T05:36:15.789Z,98878.34
2019-01-03T05:36:52.924Z,98874.09
2019-01-03T05:37:28.332Z,98875.38
2019-01-03T05:38:05.738Z,98874.12
2019-01-03T05:38:52.205Z,98878.80
2019-01-03T05:39:25.455Z,98876.70
2019-01-03T05:39:57.848Z,98867.76
2019-01-03T05:41:29.276Z,98873.73
2019-01-03T05:42:19.748Z,98874.16
2019-01-03T05:42:54.832Z,98868.62
2019-01-03T05:43:26.470Z,98876.28
2019-01-03T05:44:16.821Z,98874.58
2019-01-03T05:44:48.868Z,98875.03
2019-01-03T05:45:22.322Z,98872.48
2019-01-03T05:46:09.806Z,98872.47
2019-01-03T05:46:47.228Z,98882.68
2019-01-03T05:47:21.331Z,98870.34
2019-01-03T05:47:54.734Z,98875.47
2019-01-03T05:48:32.116Z,98883.55
2019-01-03T05:49:18.594Z,98837.34
2019-01-03T05:49:50.201Z,98875.08
2019-01-03T05:50:24.478Z,98815.73
2019-01-03T05:51:01.902Z,98880.19
2019-01-03T05:51:50.247Z,98878.91
2019-01-03T05:53:23.232Z,98876.37
2019-01-03T05:53:55.337Z,98873.00
2019-01-03T05:54:32.477Z,98870.88
2019-01-03T05:55:05.792Z,98834.83
2019-01-03T05:55:42.978Z,98884.89
2019-01-03T05:56:20.198Z,98884.07
2019-01-03T05:56:57.382Z,98869.23
2019-01-03T05:57:34.707Z,98894.25
2019-01-03T05:58:10.051Z,98885.34
2019-01-03T05:58:44.216Z,98890.44
2019-01-03T05:59:18.279Z,98889.59
2019-01-03T05:59:50.593Z,98888.31
2019-01-03T06:00:27.795Z,98889.61
2019-01-03T06:01:02.863Z,98893.02
2019-01-03T06:01:53.208Z,98891.31
2019-01-03T06:02:26.573Z,98898.96
2019-01-03T06:03:15.992Z,98893.86
2019-01-03T06:03:53.192Z,98895.13
2019-01-03T06:05:41.326Z,98894.70
2019-01-03T06:06:12.912Z,98895.57
2019-01-03T06:07:02.246Z,98890.03
2019-01-03T06:07:52.637Z,98894.28
2019-01-03T06:08:29.977Z,98896.41
2019-01-03T06:09:05.413Z,98898.54
2019-01-03T06:09:52.793Z,98903.22
2019-01-03T06:10:25.948Z,98892.14
2019-01-03T06:11:09.189Z,98899.38
2019-01-03T06:11:56.600Z,98896.82
2019-01-03T06:12:29.786Z,98897.23
2019-01-03T06:13:04.796Z,98903.17
2019-01-03T06:13:43.822Z,98902.73
2019-01-03T06:14:21.170Z,98904.83
2019-01-03T06:15:10.507Z,98905.69
2019-01-03T06:15:44.683Z,98903.57
2019-01-03T06:16:31.915Z,98900.56
2019-01-03T06:17:06.504Z,98898.42
2019-01-03T06:17:43.801Z,98903.51
2019-01-03T06:18:20.934Z,98900.94
2019-01-03T06:19:02.445Z,98908.16
2019-01-03T06:19:39.768Z,98906.44
2019-01-03T06:20:16.930Z,98900.45
2019-01-03T06:21:08.410Z,98908.52
2019-01-03T06:21:59.351Z,98905.98
2019-01-03T06:22:30.961Z,98905.95
2019-01-03T06:23:17.445Z,98904.25
2019-01-03T06:24:03.927Z,98904.67
2019-01-03T06:24:50.357Z,98902.10
2019-01-03T06:25:27.456Z,98901.25
2019-01-03T06:26:02.804Z,98899.95
2019-01-03T06:26:40.168Z,98895.28
2019-01-03T06:27:18.276Z,98899.94
2019-01-03T06:28:08.118Z,98896.93
2019-01-03T06:28:41.140Z,98905.02
2019-01-03T06:29:15.251Z,98905.00
2019-01-03T06:29:57.670Z,98903.73
2019-01-03T06:30:35.022Z,98903.30
2019-01-03T06:31:08.373Z,98913.50
2019-01-03T06:31:42.646Z,98907.54
2019-01-03T06:32:20.955Z,98910.92
2019-01-03T06:32:58.393Z,98913.45
2019-01-03T06:33:31.960Z,98910.47
2019-01-03T06:34:22.240Z,98918.98
2019-01-03T06:35:12.503Z,98921.54
2019-01-03T06:35:47.937Z,98917.70
2019-01-03T06:36:22.079Z,98906.66
2019-01-03T06:36:53.702Z,98916.88
2019-01-03T06:37:31.192Z,98913.47
2019-01-03T06:38:02.776Z,98921.98
2019-01-03T06:38:38.135Z,98913.90
2019-01-03T06:39:19.647Z,98915.62
2019-01-03T06:39:56.908Z,98914.35
2019-01-03T06:40:38.421Z,98911.41
2019-01-03T06:41:19.974Z,98921.17
2019-01-03T06:41:51.580Z,98913.11
2019-01-03T06:42:41.922Z,98917.79
2019-01-03T06:43:13.524Z,98916.53
2019-01-03T06:43:45.599Z,98921.23
2019-01-03T06:44:29.902Z,98894.95
2019-01-03T06:45:07.054Z,98918.70
2019-01-03T06:45:43.505Z,98922.10
2019-01-03T06:46:20.902Z,98919.99
2019-01-03T06:47:11.272Z,98917.44
2019-01-03T06:47:42.865Z,98915.73
2019-01-03T06:48:20.284Z,98915.31
2019-01-03T06:48:59.377Z,98915.72
2019-01-03T06:49:31.693Z,98908.07
2019-01-03T06:50:17.034Z,98908.92
2019-01-03T06:50:54.159Z,98907.22
2019-01-03T06:51:41.001Z,98916.58
2019-01-03T06:52:15.080Z,98912.77
2019-01-03T06:52:52.481Z,98912.34
2019-01-03T06:53:29.723Z,98910.23
2019-01-03T06:54:21.051Z,98912.35
2019-01-03T06:54:55.465Z,98901.76
2019-01-03T06:55:46.246Z,98909.44
2019-01-03T06:56:26.225Z,98904.34
2019-01-03T06:57:03.613Z,98903.52
2019-01-03T06:57:40.056Z,98904.36
2019-01-03T06:58:29.392Z,98903.95
2019-01-03T07:00:04.626Z,98900.19
2019-01-03T07:00:40.874Z,98903.58
2019-01-03T07:01:18.197Z,98893.81
2019-01-03T07:01:50.312Z,98889.15
2019-01-03T07:02:27.396Z,98890.42
2019-01-03T07:02:58.993Z,98891.30
2019-01-03T07:03:31.193Z,98899.36
2019-01-03T07:04:19.394Z,98901.09
2019-01-03T07:04:56.657Z,98895.98
2019-01-03T07:05:29.020Z,98892.61
2019-01-03T07:06:01.096Z,98899.83
2019-01-03T07:06:32.695Z,98894.30
2019-01-03T07:07:22.084Z,98900.70
2019-01-03T07:08:13.554Z,98895.19
2019-01-03T07:08:45.135Z,98898.97
2019-01-03T07:09:22.396Z,98901.52
2019-01-03T07:10:11.612Z,98904.94
2019-01-03T07:10:57.080Z,98904.94
2019-01-03T07:11:28.664Z,98909.64
2019-01-03T07:12:20.084Z,98907.08
2019-01-03T07:13:07.435Z,98905.81
2019-01-03T07:14:52.755Z,98899.45
2019-01-03T07:15:26.808Z,98901.56
2019-01-03T07:15:59.118Z,98899.44
2019-01-03T07:16:36.475Z,98897.33
2019-01-03T07:17:22.949Z,98891.80
2019-01-03T07:17:58.314Z,98895.22
2019-01-03T07:18:47.588Z,98900.75
2019-01-03T07:19:21.581Z,98893.97
2019-01-03T07:19:58.738Z,98898.21
2019-01-03T07:20:35.960Z,98896.51
2019-01-03T07:21:27.350Z,98893.10
2019-01-03T07:22:07.490Z,98890.13
2019-01-03T07:22:44.714Z,98883.32
2019-01-03T07:23:18.817Z,98885.89
2019-01-03T07:23:53.244Z,98891.84
2019-01-03T07:24:44.713Z,98897.78
2019-01-03T07:25:31.200Z,98900.34
2019-01-03T07:27:15.584Z,98896.12
2019-01-03T07:27:49.002Z,98898.23
2019-01-03T07:28:37.286Z,98895.24
2019-01-03T07:29:11.596Z,98882.06
2019-01-03T07:30:03.067Z,98890.58
2019-01-03T07:30:47.521Z,98882.05
2019-01-03T07:31:24.760Z,98887.13
2019-01-03T07:32:15.119Z,98886.72
2019-01-03T07:32:52.274Z,98891.36
2019-01-03T07:33:29.528Z,98892.63
2019-01-03T07:34:15.998Z,98898.13
2019-01-03T07:34:53.319Z,98895.17
2019-01-03T07:35:44.569Z,98894.72
2019-01-03T07:36:34.108Z,98892.98
2019-01-03T07:37:21.437Z,98889.97
2019-01-03T07:38:04.870Z,98892.51
2019-01-03T07:38:53.181Z,98889.06
2019-01-03T07:39:27.718Z,98901.80
2019-01-03T07:40:04.871Z,98894.52
2019-01-03T07:40:37.294Z,98894.91
2019-01-03T07:41:18.807Z,98894.88
2019-01-03T07:41:56.133Z,98889.70
2019-01-03T07:42:33.313Z,98886.25
2019-01-03T07:43:23.612Z,98881.55
2019-01-03T07:43:55.233Z,98880.63
2019-01-03T07:44:31.292Z,98885.66
2019-01-03T07:45:17.780Z,98878.86
2019-01-03T07:46:09.159Z,98879.73
2019-01-03T07:46:46.294Z,98894.70
2019-01-03T07:47:35.581Z,98901.94
2019-01-03T07:48:09.162Z,98897.63
2019-01-03T07:48:43.270Z,98896.76
2019-01-03T07:49:34.712Z,98901.42
2019-01-03T07:50:09.199Z,98900.16
2019-01-03T07:50:55.673Z,98900.55
2019-01-03T07:51:32.849Z,98890.30
2019-01-03T07:52:20.048Z,98894.13
2019-01-03T07:53:06.522Z,98885.15
2019-01-03T07:53:40.420Z,98886.83
2019-01-03T07:54:17.148Z,98883.84
2019-01-03T07:54:54.246Z,98890.23
2019-01-03T07:55:26.325Z,98885.98
2019-01-03T07:56:02.504Z,98904.27
2019-01-03T07:56:34.564Z,98908.07
2019-01-03T07:57:06.143Z,98913.18
2019-01-03T07:57:53.349Z,98915.31
2019-01-03T07:59:38.618Z,98890.18
2019-01-03T08:01:13.605Z,98885.55
2019-01-03T08:01:49.765Z,98886.83
2019-01-03T08:02:37.184Z,98886.83
2019-01-03T08:03:25.404Z,98891.53
2019-01-03T08:04:14.771Z,98899.23
2019-01-03T08:04:50.200Z,98903.06